Bluff Point, New York
Current Conditions -  °F | °C
As of 4:53 AM on Saturday 25 Oct 2014 (Local Time) from KPEO Reporting Station
Overcast Overcast  
Wind Chill: 46°   Ceiling: 6000
Heat Index: 49°   Visibility: 8mi
Dew Point: 44°   Wind: 7mph
Humidity: 83%   Direction: 200°SSW
Pressure: 29.88"   Gusts: NA
Location:  42.58°N, 77.128°W
Report Text: KPEO 250853Z AUTO 20006KT 8SM OVC060 09/07 A2988 RMK AO2 SLP120 T00940067 58006
Loading
Personal Weather Stations






























Interactive Weather Map New forecast layout! Learn more

10-Day Weather Forecast

Advertisements
Track Severe Weather on mobile